Time;durP1;ratioP1;P1;durP2;ratioP2;P2;SDS_P1;SDS_P2;PMS_P1;PMS_P2;Temp;Humidity;BMP_temperature;BMP_pressure;BME280_temperature;BME280_humidity;BME280_pressure;Samples;Min_cycle;Max_cycle;Signal;HPM_P1;HPM_P2
2022/03/12 00:00:50;;;;;;;0.00;0.00;;;1.60;64.20;;;;;;5035437;28;20104;-73
2022/03/12 00:03:16;;;;;;;0.30;0.30;;;1.60;64.60;;;;;;5033773;28;20030;-83
2022/03/12 00:05:50;;;;;;;1.65;1.55;;;1.70;66.50;;;;;;5036626;28;20300;-83
2022/03/12 00:08:16;;;;;;;1.10;1.08;;;1.60;64.20;;;;;;5035001;28;20188;-82
2022/03/12 00:10:43;;;;;;;0.00;0.00;;;1.60;65.80;;;;;;5034040;28;20169;-82
2022/03/12 00:13:09;;;;;;;0.08;0.08;;;1.60;66.70;;;;;;5040147;28;20405;-82
2022/03/12 00:15:35;;;;;;;0.00;0.00;;;1.60;65.10;;;;;;5036549;28;20033;-82
2022/03/12 00:18:02;;;;;;;0.00;0.00;;;1.50;66.30;;;;;;5035264;28;20030;-81
2022/03/12 00:20:29;;;;;;;0.00;0.00;;;1.50;67.90;;;;;;5023893;28;20049;-80
2022/03/12 00:22:56;;;;;;;0.25;0.25;;;1.50;64.90;;;;;;5042031;28;20049;-82
2022/03/12 00:25:24;;;;;;;0.43;0.43;;;1.50;65.40;;;;;;5040872;28;20485;-81
2022/03/12 00:27:51;;;;;;;0.95;0.95;;;1.60;62.40;;;;;;5040074;28;20147;-80
2022/03/12 00:30:22;;;;;;;0.25;0.20;;;1.60;64.60;;;;;;5037459;28;20101;-82
2022/03/12 00:32:54;;;;;;;0.25;0.15;;;1.60;68.20;;;;;;5038066;28;20025;-81
2022/03/12 00:35:22;;;;;;;0.15;0.15;;;1.50;65.70;;;;;;5035426;28;20239;-79
2022/03/12 00:37:48;;;;;;;12.10;1.63;;;1.50;64.10;;;;;;5045854;28;20335;-80
2022/03/12 00:40:16;;;;;;;1.33;0.30;;;1.40;66.10;;;;;;5047637;28;20033;-80
2022/03/12 00:42:42;;;;;;;0.00;0.00;;;2.00;68.50;;;;;;5039090;28;20279;-80
2022/03/12 00:45:10;;;;;;;1.85;1.10;;;1.30;71.70;;;;;;5036744;28;20037;-72
2022/03/12 00:47:35;;;;;;;0.17;0.05;;;1.40;67.30;;;;;;5038425;28;20033;-80
2022/03/12 00:50:01;;;;;;;0.00;0.00;;;1.30;64.50;;;;;;5021371;28;20024;-81
2022/03/12 00:52:27;;;;;;;1.10;0.52;;;1.30;69.60;;;;;;5038924;28;20211;-74
2022/03/12 00:54:53;;;;;;;3.22;3.03;;;1.20;71.30;;;;;;5020847;28;20037;-80
2022/03/12 00:57:19;;;;;;;0.00;0.00;;;1.10;71.70;;;;;;5042391;28;20593;-78
2022/03/12 00:59:45;;;;;;;0.45;0.45;;;1.00;70.40;;;;;;5036940;28;20061;-80
2022/03/12 01:02:14;;;;;;;0.00;0.00;;;1.00;70.60;;;;;;5036934;28;20025;-81
2022/03/12 01:04:40;;;;;;;0.38;0.38;;;1.00;70.30;;;;;;5023747;28;20026;-74
2022/03/12 01:07:06;;;;;;;0.00;0.00;;;1.00;72.70;;;;;;5039597;28;20028;-84
2022/03/12 01:09:32;;;;;;;0.00;0.00;;;0.90;75.40;;;;;;5041180;28;20336;-81
2022/03/12 01:11:58;;;;;;;0.00;0.00;;;0.80;74.00;;;;;;5039435;28;20242;-85
2022/03/12 01:14:24;;;;;;;0.30;0.30;;;0.80;74.20;;;;;;5041382;28;20033;-82
2022/03/12 01:16:49;;;;;;;0.00;0.00;;;0.80;71.70;;;;;;5022810;28;20087;-82
2022/03/12 01:19:15;;;;;;;0.00;0.00;;;0.80;74.60;;;;;;5020735;28;20032;-83
2022/03/12 01:21:41;;;;;;;0.10;0.10;;;0.80;73.10;;;;;;5021008;28;20244;-83
2022/03/12 01:24:08;;;;;;;0.00;0.00;;;0.80;70.60;;;;;;5039327;28;20305;-80
2022/03/12 01:26:35;;;;;;;0.00;0.00;;;0.80;73.20;;;;;;5042741;28;20025;-74
2022/03/12 01:29:02;;;;;;;0.10;0.10;;;0.80;70.40;;;;;;5039280;28;20025;-80
2022/03/12 01:31:28;;;;;;;0.00;0.00;;;0.80;70.80;;;;;;5026415;28;20041;-79
2022/03/12 01:33:54;;;;;;;3.10;0.38;;;0.80;70.80;;;;;;5024308;28;20017;-79
2022/03/12 01:36:19;;;;;;;0.30;0.30;;;0.80;74.30;;;;;;5038050;28;20063;-74
2022/03/12 01:38:48;;;;;;;0.00;0.00;;;0.90;70.00;;;;;;5039403;28;20021;-75
2022/03/12 01:41:19;;;;;;;0.00;0.00;;;0.90;71.60;;;;;;5025397;28;20100;-78
2022/03/12 01:43:45;;;;;;;0.00;0.00;;;0.90;72.40;;;;;;5042817;28;20025;-78
2022/03/12 01:46:11;;;;;;;0.10;0.10;;;0.80;75.60;;;;;;5037376;28;20037;-73
2022/03/12 01:48:44;;;;;;;0.00;0.00;;;0.80;73.60;;;;;;5037839;28;20033;-78
2022/03/12 01:51:09;;;;;;;0.45;0.45;;;0.70;74.90;;;;;;5038039;28;20036;-70
2022/03/12 01:53:35;;;;;;;4.70;4.38;;;0.80;73.00;;;;;;5038683;28;20013;-73
2022/03/12 01:56:01;;;;;;;0.10;0.10;;;0.80;72.70;;;;;;5036659;28;20320;-79
2022/03/12 01:58:26;;;;;;;0.00;0.00;;;0.70;73.20;;;;;;5037357;28;20040;-73
2022/03/12 02:00:53;;;;;;;1.35;1.30;;;1.10;74.40;;;;;;5037865;28;20209;-78
2022/03/12 02:03:29;;;;;;;0.00;0.00;;;0.70;72.60;;;;;;5037396;28;20044;-73
2022/03/12 02:05:57;;;;;;;0.30;0.30;;;0.70;73.50;;;;;;5037253;28;20050;-80
2022/03/12 02:08:23;;;;;;;0.30;0.15;;;0.70;72.70;;;;;;5035281;28;20096;-79
2022/03/12 02:10:50;;;;;;;0.75;0.75;;;0.70;71.00;;;;;;5027086;28;20320;-74
2022/03/12 02:13:17;;;;;;;2.10;1.85;;;0.80;72.00;;;;;;5025033;28;20084;-79
2022/03/12 02:15:43;;;;;;;0.00;0.00;;;0.80;68.60;;;;;;5039702;28;20044;-80
2022/03/12 02:18:12;;;;;;;0.00;0.00;;;0.80;72.40;;;;;;5019940;28;20453;-80
2022/03/12 02:20:40;;;;;;;0.25;0.25;;;0.80;73.40;;;;;;5025328;28;20136;-80
2022/03/12 02:23:10;;;;;;;0.00;0.00;;;0.70;74.20;;;;;;5040005;28;20076;-80
2022/03/12 02:25:36;;;;;;;0.00;0.00;;;0.90;76.70;;;;;;5020737;28;20328;-79
2022/03/12 02:28:12;;;;;;;0.00;0.00;;;0.60;76.30;;;;;;5038171;28;20300;-78
2022/03/12 02:30:41;;;;;;;0.00;0.00;;;0.60;77.30;;;;;;5035838;28;20021;-79
2022/03/12 02:33:07;;;;;;;0.00;0.00;;;0.50;77.30;;;;;;5035129;28;20022;-79
2022/03/12 02:35:36;;;;;;;0.00;0.00;;;0.50;77.10;;;;;;5036207;28;20041;-80
2022/03/12 02:38:04;;;;;;;0.00;0.00;;;0.50;76.50;;;;;;5038559;28;20080;-79
2022/03/12 02:40:30;;;;;;;0.85;0.82;;;0.50;73.10;;;;;;5036815;28;20348;-77
2022/03/12 02:42:57;;;;;;;0.00;0.00;;;0.60;74.40;;;;;;5043954;28;20051;-80
2022/03/12 02:45:25;;;;;;;1.02;0.80;;;0.60;74.60;;;;;;5036989;28;20029;-79
2022/03/12 02:47:50;;;;;;;0.90;0.45;;;0.50;76.80;;;;;;5039001;28;20309;-79
2022/03/12 02:50:17;;;;;;;0.00;0.00;;;0.50;78.80;;;;;;5037395;28;20033;-77
2022/03/12 02:52:44;;;;;;;2.67;1.48;;;0.30;77.00;;;;;;5024166;28;20079;-77
2022/03/12 02:55:21;;;;;;;0.00;0.00;;;0.30;79.20;;;;;;5043371;28;20033;-71
2022/03/12 02:57:48;;;;;;;2.85;0.77;;;0.30;74.70;;;;;;5034512;28;20021;-77
2022/03/12 03:00:16;;;;;;;0.65;0.60;;;0.30;72.90;;;;;;5037859;28;20384;-77
2022/03/12 03:02:42;;;;;;;5.32;2.83;;;0.40;77.10;;;;;;5044705;28;20081;-77
2022/03/12 03:05:54;;;;;;;0.00;0.00;;;0.20;75.50;;;;;;5036425;28;20041;-74
2022/03/12 03:08:16;;;;;;;1.85;0.30;;;0.10;77.70;;;;;;5032647;28;20026;-76
2022/03/12 03:10:44;;;;;;;0.00;0.00;;;0.10;75.00;;;;;;5021228;28;20024;-77
2022/03/12 03:13:16;;;;;;;0.25;0.25;;;0.10;76.90;;;;;;5039933;28;20026;-71
2022/03/12 03:15:47;;;;;;;1.02;1.02;;;0.00;73.60;;;;;;5040778;28;20037;-81
2022/03/12 03:18:15;;;;;;;0.55;0.08;;;0.00;74.40;;;;;;5038011;28;20553;-83
2022/03/12 03:20:41;;;;;;;;;;;-0.10;74.60;;;;;;5028688;28;20110;-79
2022/03/12 03:23:09;;;;;;;1.98;1.20;;;-0.10;72.90;;;;;;5036776;28;19976;-82
2022/03/12 03:25:35;;;;;;;0.08;0.08;;;-0.20;71.70;;;;;;5046717;28;20029;-82
2022/03/12 03:28:01;;;;;;;1.00;0.80;;;-0.20;74.00;;;;;;5037198;28;20028;-82
2022/03/12 03:30:32;;;;;;;0.00;0.00;;;-0.30;73.30;;;;;;5039833;28;20085;-80
2022/03/12 03:32:58;;;;;;;3.10;1.70;;;-0.30;73.80;;;;;;5045173;28;20653;-79
2022/03/12 03:35:24;;;;;;;2.92;1.60;;;-0.20;74.40;;;;;;5040943;28;20033;-80
2022/03/12 03:37:49;;;;;;;0.10;0.10;;;-0.20;70.90;;;;;;5036623;28;20033;-79
2022/03/12 03:40:15;;;;;;;2.72;1.60;;;-0.20;74.30;;;;;;5043105;28;20318;-81
2022/03/12 03:42:41;;;;;;;1.40;1.00;;;-0.20;74.80;;;;;;5035130;28;20273;-79
2022/03/12 03:45:07;;;;;;;0.85;0.85;;;-0.10;68.90;;;;;;5034528;28;20226;-79
2022/03/12 03:47:32;;;;;;;3.72;2.00;;;-0.20;70.20;;;;;;5038383;28;20040;-79
2022/03/12 03:49:58;;;;;;;0.88;0.57;;;-0.10;69.00;;;;;;5037887;28;20048;-78
2022/03/12 03:52:24;;;;;;;0.35;0.35;;;-0.20;70.10;;;;;;5035159;28;20021;-78
2022/03/12 03:54:50;;;;;;;14.07;1.15;;;-0.10;70.60;;;;;;5040429;28;20296;-79
2022/03/12 03:57:19;;;;;;;0.13;0.13;;;-0.20;70.80;;;;;;5039399;28;20028;-79
2022/03/12 03:59:44;;;;;;;1.45;1.35;;;-0.10;70.30;;;;;;5041337;28;20021;-85
2022/03/12 04:02:11;;;;;;;0.28;0.20;;;-0.10;70.50;;;;;;5037341;28;20223;-85
2022/03/12 04:04:38;;;;;;;4.63;1.17;;;-0.10;68.40;;;;;;5038515;28;20021;-76
2022/03/12 04:07:10;;;;;;;0.10;0.10;;;0.00;66.50;;;;;;5041109;28;20044;-80
2022/03/12 04:09:36;;;;;;;0.70;0.55;;;0.00;68.40;;;;;;5041840;28;20092;-85
2022/03/12 04:12:02;;;;;;;1.30;0.82;;;0.00;69.20;;;;;;5024201;28;20193;-82
2022/03/12 04:14:27;;;;;;;0.47;0.28;;;0.00;66.20;;;;;;5040698;28;20036;-85
2022/03/12 04:16:53;;;;;;;1.45;0.52;;;0.00;66.00;;;;;;5028381;28;20033;-85
2022/03/12 04:19:19;;;;;;;4.95;3.38;;;0.00;66.50;;;;;;5038107;28;20124;-71
2022/03/12 04:22:03;;;;;;;0.93;0.50;;;0.00;66.50;;;;;;5048186;28;20060;-84
2022/03/12 04:24:29;;;;;;;4.28;1.77;;;-0.10;68.90;;;;;;5048138;28;20030;-72
2022/03/12 04:26:55;;;;;;;2.15;0.85;;;-0.10;65.30;;;;;;5043238;28;20032;-85
2022/03/12 04:29:21;;;;;;;4.90;0.60;;;-0.10;66.40;;;;;;5027115;28;20028;-82
2022/03/12 04:31:49;;;;;;;1.20;0.80;;;-0.20;69.00;;;;;;5044515;28;20021;-75
2022/03/12 04:34:15;;;;;;;2.50;1.60;;;-0.20;68.60;;;;;;5042984;28;20021;-86
2022/03/12 04:36:41;;;;;;;1.30;0.90;;;-0.20;67.80;;;;;;5043696;28;20220;-78
2022/03/12 04:39:11;;;;;;;0.15;0.10;;;-0.20;63.80;;;;;;5040499;28;20029;-86
2022/03/12 04:41:39;;;;;;;0.10;0.10;;;-0.10;67.40;;;;;;5044565;28;20088;-85
2022/03/12 04:44:07;;;;;;;1.08;1.00;;;-0.10;67.20;;;;;;5038885;28;20025;-80
2022/03/12 04:46:34;;;;;;;0.47;0.32;;;-0.10;63.00;;;;;;5041638;28;20045;-81
2022/03/12 04:49:00;;;;;;;0.32;0.25;;;-0.10;65.40;;;;;;5034377;28;20017;-81
2022/03/12 04:51:28;;;;;;;0.50;0.50;;;-0.10;65.50;;;;;;5041423;28;20036;-78
2022/03/12 04:53:58;;;;;;;0.10;0.10;;;0.30;64.40;;;;;;5033947;28;20021;-79
2022/03/12 04:56:25;;;;;;;0.05;0.05;;;0.00;62.20;;;;;;5038696;28;20037;-80
2022/03/12 04:58:53;;;;;;;0.17;0.10;;;0.00;63.80;;;;;;5038267;28;20013;-77
2022/03/12 05:01:22;;;;;;;0.65;0.65;;;0.00;67.70;;;;;;5038784;28;20033;-71
2022/03/12 05:03:48;;;;;;;0.52;0.45;;;0.00;62.00;;;;;;5023665;28;20285;-80
2022/03/12 05:06:15;;;;;;;0.20;0.10;;;0.00;63.40;;;;;;5035186;28;20040;-82
2022/03/12 05:08:41;;;;;;;0.98;0.75;;;0.00;64.40;;;;;;5037764;28;20025;-82
2022/03/12 05:11:08;;;;;;;2.10;0.90;;;-0.10;67.40;;;;;;5027662;28;20107;-83
2022/03/12 05:13:34;;;;;;;2.53;2.08;;;-0.20;70.10;;;;;;5033071;28;20037;-83
2022/03/12 05:16:03;;;;;;;0.43;0.43;;;-0.20;63.30;;;;;;5032625;28;20041;-75
2022/03/12 05:18:30;;;;;;;2.30;1.08;;;-0.10;66.00;;;;;;5037782;28;20450;-79
2022/03/12 05:20:56;;;;;;;1.75;0.47;;;-0.10;62.70;;;;;;5039211;28;20025;-84
2022/03/12 05:23:22;;;;;;;2.40;1.75;;;-0.10;66.80;;;;;;5035563;28;20025;-83
2022/03/12 05:25:49;;;;;;;1.27;1.17;;;-0.10;63.80;;;;;;5040728;28;20036;-76
2022/03/12 05:28:22;;;;;;;3.47;0.60;;;-0.20;66.60;;;;;;5043057;28;20041;-78
2022/03/12 05:30:49;;;;;;;1.33;0.98;;;-0.20;65.20;;;;;;5042159;28;20052;-83
2022/03/12 05:33:16;;;;;;;1.02;0.20;;;-0.30;65.10;;;;;;5038554;28;20025;-84
2022/03/12 05:35:43;;;;;;;0.45;0.35;;;-0.20;67.80;;;;;;5042191;28;20029;-84
2022/03/12 05:38:11;;;;;;;0.00;0.00;;;-0.20;67.50;;;;;;5036426;28;20292;-74
2022/03/12 05:40:39;;;;;;;0.00;0.00;;;-0.20;68.80;;;;;;5035395;28;20018;-81
2022/03/12 05:43:10;;;;;;;0.35;0.20;;;-0.20;67.10;;;;;;5040844;28;20058;-80
2022/03/12 05:45:37;;;;;;;0.82;0.47;;;-0.10;65.60;;;;;;5022824;28;20205;-81
2022/03/12 05:48:04;;;;;;;8.23;1.95;;;-0.10;64.40;;;;;;5046417;28;20022;-81
2022/03/12 05:50:30;;;;;;;2.25;0.68;;;-0.10;64.50;;;;;;5040968;28;20039;-80
2022/03/12 05:52:55;;;;;;;0.57;0.32;;;-0.20;67.20;;;;;;5041354;28;20081;-77
2022/03/12 05:55:23;;;;;;;3.40;0.65;;;-0.20;65.20;;;;;;5037837;28;20048;-80
2022/03/12 05:57:49;;;;;;;0.88;0.88;;;-0.10;63.60;;;;;;5035581;28;20431;-79
2022/03/12 06:00:16;;;;;;;2.15;1.55;;;-0.30;66.10;;;;;;5039034;28;20028;-74
2022/03/12 06:02:52;;;;;;;0.38;0.30;;;-0.20;68.10;;;;;;5025871;28;20013;-76
2022/03/12 06:05:20;;;;;;;2.25;0.85;;;-0.30;67.30;;;;;;5040069;28;20316;-81
2022/03/12 06:07:46;;;;;;;2.70;1.67;;;-0.30;68.20;;;;;;5041904;28;20202;-81
2022/03/12 06:10:21;;;;;;;4.43;1.05;;;-0.30;67.80;;;;;;5041853;28;20021;-80
2022/03/12 06:12:48;;;;;;;2.67;1.25;;;-0.30;65.60;;;;;;5037676;28;20092;-80
2022/03/12 06:15:17;;;;;;;1.33;0.38;;;-0.40;65.90;;;;;;5034540;28;20147;-72
2022/03/12 06:17:45;;;;;;;1.25;0.85;;;-0.30;67.70;;;;;;5022752;28;20020;-80
2022/03/12 06:20:12;;;;;;;0.75;0.45;;;-0.40;66.60;;;;;;5035181;28;20035;-83
2022/03/12 06:22:39;;;;;;;12.82;1.55;;;-0.30;66.20;;;;;;5006051;28;20229;-84
2022/03/12 06:25:07;;;;;;;0.43;0.22;;;-0.30;68.30;;;;;;5015067;28;20029;-83
2022/03/12 06:27:33;;;;;;;4.47;2.58;;;-0.20;64.90;;;;;;5017516;28;20025;-80
2022/03/12 06:29:59;;;;;;;4.13;1.02;;;-0.10;69.00;;;;;;5020310;28;20359;-83
2022/03/12 06:32:25;;;;;;;0.88;0.77;;;-0.20;69.20;;;;;;5018386;28;20022;-78
2022/03/12 06:34:51;;;;;;;0.38;0.28;;;-0.20;67.90;;;;;;5014904;28;20044;-78
2022/03/12 06:37:16;;;;;;;1.55;0.65;;;-0.20;67.90;;;;;;5019066;28;20034;-81
2022/03/12 06:39:42;;;;;;;1.02;0.70;;;-0.20;68.80;;;;;;5015127;28;20359;-76
2022/03/12 06:42:08;;;;;;;0.82;0.82;;;-0.20;67.00;;;;;;5015235;28;20034;-83
2022/03/12 06:44:36;;;;;;;2.20;1.35;;;-0.20;67.50;;;;;;5016647;28;20024;-79
2022/03/12 06:47:07;;;;;;;0.88;0.43;;;-0.20;67.90;;;;;;5019322;28;20301;-81
2022/03/12 06:49:33;;;;;;;4.70;2.97;;;-0.10;63.60;;;;;;5021477;28;20220;-77
2022/03/12 06:52:00;;;;;;;1.25;1.17;;;0.00;64.90;;;;;;5018449;28;20093;-72
2022/03/12 06:54:25;;;;;;;2.70;1.20;;;0.10;69.10;;;;;;5014698;28;20048;-78
2022/03/12 06:56:51;;;;;;;8.75;2.03;;;0.00;67.70;;;;;;5017328;28;20033;-79
2022/03/12 06:59:17;;;;;;;2.65;0.95;;;0.10;66.30;;;;;;5017455;28;20018;-78
2022/03/12 07:01:43;;;;;;;9.98;2.17;;;0.20;66.70;;;;;;5004326;28;20025;-75
2022/03/12 07:04:10;;;;;;;1.90;1.80;;;0.20;63.40;;;;;;5015369;28;20369;-79
2022/03/12 07:06:37;;;;;;;3.70;0.90;;;0.20;65.60;;;;;;5020084;28;20108;-80
2022/03/12 07:09:03;;;;;;;0.98;0.45;;;0.30;64.80;;;;;;5016799;28;20328;-79
2022/03/12 07:11:31;;;;;;;5.57;1.00;;;0.40;65.70;;;;;;5014192;28;20025;-79
2022/03/12 07:13:57;;;;;;;5.50;1.20;;;0.40;65.70;;;;;;5023834;28;20017;-81
2022/03/12 07:16:23;;;;;;;0.00;0.00;;;0.50;65.40;;;;;;5016970;28;20216;-83
2022/03/12 07:18:50;;;;;;;0.68;0.35;;;0.60;65.40;;;;;;5022607;28;20100;-70
2022/03/12 07:21:16;;;;;;;1.00;0.65;;;0.70;62.00;;;;;;5018324;28;20067;-71
2022/03/12 07:23:41;;;;;;;4.45;2.15;;;0.70;68.80;;;;;;5034114;28;20021;-78
2022/03/12 07:26:08;;;;;;;1.80;1.05;;;0.70;67.70;;;;;;5021373;28;20052;-78
2022/03/12 07:28:34;;;;;;;4.95;0.82;;;0.70;64.30;;;;;;5025349;28;20029;-80
2022/03/12 07:31:00;;;;;;;0.03;0.03;;;1.20;64.70;;;;;;5030553;28;20261;-80
2022/03/12 07:33:28;;;;;;;0.43;0.25;;;0.80;63.10;;;;;;5031973;28;20025;-77
2022/03/12 07:35:54;;;;;;;1.67;0.68;;;0.90;61.70;;;;;;5022594;28;20029;-82
2022/03/12 07:38:20;;;;;;;0.32;0.25;;;1.00;63.20;;;;;;5030466;28;20216;-77
2022/03/12 07:40:46;;;;;;;0.25;0.25;;;1.10;61.20;;;;;;5019302;28;20033;-83
2022/03/12 07:43:12;;;;;;;0.15;0.15;;;1.30;62.70;;;;;;5020055;28;20085;-83
2022/03/12 07:45:38;;;;;;;2.15;2.05;;;1.10;63.00;;;;;;5016381;28;20034;-85
2022/03/12 07:48:05;;;;;;;0.10;0.10;;;1.20;62.30;;;;;;5037324;28;20020;-80
2022/03/12 07:50:33;;;;;;;0.00;0.00;;;1.20;63.00;;;;;;5016996;28;20789;-82
2022/03/12 07:52:59;;;;;;;3.27;1.17;;;1.30;64.50;;;;;;5018533;28;20045;-72
2022/03/12 07:55:25;;;;;;;1.05;0.70;;;1.40;63.00;;;;;;5030381;28;20451;-81
2022/03/12 07:57:51;;;;;;;0.52;0.43;;;1.40;62.40;;;;;;5020744;28;20028;-76
2022/03/12 08:00:18;;;;;;;1.67;1.25;;;1.40;61.70;;;;;;5031598;28;20396;-74
2022/03/12 08:02:46;;;;;;;1.13;0.68;;;1.40;59.70;;;;;;5022255;28;20025;-80
2022/03/12 08:05:16;;;;;;;1.67;1.27;;;1.50;61.80;;;;;;5030458;28;20030;-81
2022/03/12 08:07:42;;;;;;;0.30;0.30;;;1.60;62.60;;;;;;5019603;28;20056;-80
2022/03/12 08:10:09;;;;;;;11.60;4.57;;;1.60;63.20;;;;;;5030093;28;20033;-80
2022/03/12 08:12:35;;;;;;;1.77;0.50;;;1.70;59.00;;;;;;5034020;28;20312;-82
2022/03/12 08:15:08;;;;;;;0.00;0.00;;;1.70;61.40;;;;;;5030397;28;20025;-81
2022/03/12 08:17:34;;;;;;;5.22;1.70;;;1.70;65.20;;;;;;5021991;28;20038;-78
2022/03/12 08:20:01;;;;;;;2.53;1.33;;;1.80;62.50;;;;;;5019588;28;20084;-79
2022/03/12 08:22:27;;;;;;;1.65;0.85;;;1.70;64.30;;;;;;5034622;28;20542;-82
2022/03/12 08:24:53;;;;;;;0.00;0.00;;;1.70;62.80;;;;;;5029845;28;20021;-81
2022/03/12 08:27:19;;;;;;;0.00;0.00;;;1.80;62.00;;;;;;5029615;28;20022;-71
2022/03/12 08:29:45;;;;;;;3.05;2.40;;;1.80;63.10;;;;;;5015925;28;20026;-83
2022/03/12 08:32:11;;;;;;;0.30;0.13;;;1.90;61.50;;;;;;5017025;28;20033;-77
2022/03/12 08:34:38;;;;;;;1.83;0.30;;;1.80;62.40;;;;;;5016298;28;20325;-78
2022/03/12 08:37:04;;;;;;;0.00;0.00;;;1.70;63.30;;;;;;5016972;28;20070;-80
2022/03/12 08:39:31;;;;;;;1.05;0.57;;;2.00;64.10;;;;;;5017900;28;20029;-79
2022/03/12 08:41:57;;;;;;;0.03;0.03;;;2.60;59.70;;;;;;5029727;28;20022;-80
2022/03/12 08:44:23;;;;;;;0.17;0.17;;;2.20;59.80;;;;;;5029524;28;20049;-79
2022/03/12 08:46:49;;;;;;;0.47;0.47;;;2.20;59.60;;;;;;5021223;28;20036;-78
2022/03/12 08:49:16;;;;;;;2.45;1.00;;;2.30;63.10;;;;;;5017020;28;20093;-83
2022/03/12 08:51:42;;;;;;;1.27;1.17;;;2.20;62.20;;;;;;5019030;28;20069;-78
2022/03/12 08:54:09;;;;;;;0.32;0.32;;;2.30;59.10;;;;;;5017280;28;20026;-82
2022/03/12 08:56:35;;;;;;;0.28;0.28;;;2.30;63.50;;;;;;5016739;28;20042;-77
2022/03/12 08:59:02;;;;;;;0.65;0.30;;;2.30;63.80;;;;;;5019718;28;20052;-80
2022/03/12 09:01:29;;;;;;;6.60;2.72;;;2.20;62.50;;;;;;5019213;28;20343;-80
2022/03/12 09:03:55;;;;;;;4.88;2.33;;;2.30;65.10;;;;;;5033899;28;20031;-81
2022/03/12 09:06:22;;;;;;;0.00;0.00;;;2.30;61.60;;;;;;5018701;28;20030;-80
2022/03/12 09:08:48;;;;;;;0.43;0.43;;;2.30;59.20;;;;;;5019882;28;20061;-80
2022/03/12 09:11:17;;;;;;;1.65;0.63;;;2.40;60.30;;;;;;5019522;28;20034;-83
2022/03/12 09:13:43;;;;;;;4.85;2.47;;;2.50;59.30;;;;;;5033232;28;20018;-82
2022/03/12 09:16:09;;;;;;;0.95;0.47;;;2.50;58.70;;;;;;5018982;28;20403;-77
2022/03/12 09:18:35;;;;;;;0.68;0.30;;;2.60;57.90;;;;;;5034047;28;20030;-83
2022/03/12 09:21:00;;;;;;;1.65;1.55;;;2.60;59.20;;;;;;5034605;28;20305;-82
2022/03/12 09:23:26;;;;;;;0.30;0.30;;;2.70;64.70;;;;;;5039053;28;20032;-80
2022/03/12 09:25:52;;;;;;;0.63;0.32;;;2.70;60.30;;;;;;5039031;28;20056;-76
2022/03/12 09:28:19;;;;;;;0.00;0.00;;;2.70;65.00;;;;;;5040036;28;20248;-81
2022/03/12 09:30:50;;;;;;;0.38;0.28;;;2.70;62.70;;;;;;5041563;28;20088;-81
2022/03/12 09:33:17;;;;;;;1.55;1.30;;;2.70;59.70;;;;;;5036724;28;20025;-80
2022/03/12 09:35:43;;;;;;;0.00;0.00;;;2.90;62.80;;;;;;5036551;28;20107;-80
2022/03/12 09:38:10;;;;;;;3.25;1.25;;;3.00;57.00;;;;;;5040623;28;20033;-78
2022/03/12 09:40:36;;;;;;;1.33;0.50;;;3.00;60.00;;;;;;5046343;28;20060;-79
2022/03/12 09:43:03;;;;;;;2.05;0.93;;;2.90;59.00;;;;;;5035488;28;20024;-77
2022/03/12 09:45:29;;;;;;;0.10;0.10;;;3.00;59.20;;;;;;5029929;28;20036;-78
2022/03/12 09:47:54;;;;;;;1.10;0.55;;;3.10;58.20;;;;;;5027874;28;20017;-74
2022/03/12 09:50:21;;;;;;;0.75;0.43;;;3.10;60.40;;;;;;5047998;28;20075;-75
2022/03/12 09:52:47;;;;;;;1.10;0.10;;;3.20;56.90;;;;;;5047059;28;20025;-78
2022/03/12 09:55:14;;;;;;;0.98;0.40;;;3.30;56.00;;;;;;5049995;28;20037;-75
2022/03/12 09:57:41;;;;;;;0.63;0.40;;;3.40;61.00;;;;;;5047416;28;20017;-76
2022/03/12 10:00:08;;;;;;;1.85;0.45;;;3.40;58.00;;;;;;5046247;28;20055;-78
2022/03/12 10:02:35;;;;;;;0.77;0.38;;;3.40;60.00;;;;;;5035777;28;20031;-81
2022/03/12 10:05:01;;;;;;;0.20;0.20;;;3.40;56.90;;;;;;5035448;28;20020;-80
2022/03/12 10:07:26;;;;;;;0.60;0.60;;;3.50;56.60;;;;;;5034675;28;20105;-80
2022/03/12 10:09:52;;;;;;;1.15;0.22;;;3.50;56.20;;;;;;5035463;28;20080;-79
2022/03/12 10:12:19;;;;;;;0.50;0.50;;;3.50;59.10;;;;;;5026968;28;20022;-80
2022/03/12 10:14:48;;;;;;;1.65;0.93;;;3.60;57.00;;;;;;5051504;28;20013;-79
2022/03/12 10:17:14;;;;;;;3.95;0.85;;;3.70;55.90;;;;;;5044007;28;20032;-82
2022/03/12 10:19:40;;;;;;;1.75;1.65;;;3.60;60.20;;;;;;5022493;28;20044;-77
2022/03/12 10:22:08;;;;;;;3.78;1.85;;;3.70;58.30;;;;;;5038660;28;20273;-76
2022/03/12 10:27:18;;;;;;;3.38;1.65;;;3.90;56.10;;;;;;5038018;28;19954;-77
2022/03/12 10:29:44;;;;;;;2.67;0.82;;;4.00;58.00;;;;;;5043358;28;20028;-80
2022/03/12 10:32:31;;;;;;;0.00;0.00;;;4.00;56.50;;;;;;5038594;28;20246;-76
2022/03/12 10:34:59;;;;;;;1.23;1.05;;;4.10;54.80;;;;;;5037661;28;20143;-75
2022/03/12 10:37:32;;;;;;;1.98;0.73;;;4.10;60.90;;;;;;5036645;28;20248;-75
2022/03/12 10:40:17;;;;;;;0.75;0.52;;;4.10;56.40;;;;;;5039847;28;20025;-78
2022/03/12 10:42:57;;;;;;;0.00;0.00;;;4.20;55.50;;;;;;5038390;28;20078;-77
2022/03/12 10:45:28;;;;;;;1.80;0.52;;;4.30;54.30;;;;;;5038485;28;20029;-78
2022/03/12 10:47:57;;;;;;;0.25;0.10;;;4.30;53.10;;;;;;5037937;28;20013;-75
2022/03/12 10:50:25;;;;;;;0.00;0.00;;;4.50;57.60;;;;;;5038771;28;20202;-78
2022/03/12 10:52:53;;;;;;;3.35;3.15;;;4.50;55.50;;;;;;5038361;28;20021;-80
2022/03/12 10:55:29;;;;;;;0.30;0.20;;;4.50;54.10;;;;;;5041034;28;20124;-71
2022/03/12 10:58:10;;;;;;;0.90;0.90;;;4.60;51.90;;;;;;5036975;28;20204;-81
2022/03/12 11:00:44;;;;;;;1.63;0.95;;;4.70;55.70;;;;;;5029840;28;20193;-76
2022/03/12 11:03:14;;;;;;;4.78;0.85;;;4.80;56.10;;;;;;5023923;28;20050;-79
2022/03/12 11:05:42;;;;;;;0.00;0.00;;;4.70;55.20;;;;;;5033349;28;20067;-73
2022/03/12 11:08:23;;;;;;;2.65;0.73;;;4.70;55.50;;;;;;5040461;28;20042;-72
2022/03/12 11:10:59;;;;;;;0.25;0.10;;;4.80;52.90;;;;;;5025519;28;20052;-70
2022/03/12 11:13:43;;;;;;;0.40;0.30;;;4.90;53.20;;;;;;5037216;28;20288;-74
2022/03/12 11:16:12;;;;;;;1.80;1.20;;;5.50;56.60;;;;;;5029703;28;20509;-76
2022/03/12 11:18:54;;;;;;;0.52;0.50;;;6.30;51.30;;;;;;5038270;28;20017;-79
2022/03/12 11:21:27;;;;;;;3.38;1.15;;;6.90;51.30;;;;;;5022184;28;20084;-79
2022/03/12 11:23:54;;;;;;;0.20;0.20;;;7.30;51.90;;;;;;5034721;28;20024;-75
2022/03/12 11:26:20;;;;;;;0.00;0.00;;;7.60;49.00;;;;;;5039234;28;20041;-77
2022/03/12 11:28:57;;;;;;;1.08;0.43;;;7.80;54.90;;;;;;5038220;28;20014;-79
2022/03/12 11:31:41;;;;;;;0.55;0.35;;;7.90;50.70;;;;;;5037352;28;20052;-79
2022/03/12 11:34:39;;;;;;;0.70;0.70;;;7.90;53.30;;;;;;5038478;28;20300;-75
2022/03/12 11:37:18;;;;;;;0.57;0.20;;;8.00;52.70;;;;;;5028028;28;20053;-79
2022/03/12 11:40:11;;;;;;;0.30;0.10;;;8.20;53.20;;;;;;5020632;28;20075;-79
2022/03/12 11:42:39;;;;;;;0.00;0.00;;;8.30;47.20;;;;;;5039379;28;20044;-84
2022/03/12 11:45:15;;;;;;;1.45;0.22;;;8.30;44.10;;;;;;5037602;28;20082;-81
2022/03/12 11:47:43;;;;;;;3.70;0.90;;;8.50;51.20;;;;;;5020182;28;20284;-79
2022/03/12 11:50:18;;;;;;;0.65;0.35;;;8.50;48.60;;;;;;5037027;28;20026;-69
2022/03/12 11:52:45;;;;;;;1.65;0.45;;;8.40;50.00;;;;;;5039117;28;20025;-80
2022/03/12 11:55:22;;;;;;;1.55;0.70;;;8.40;46.80;;;;;;5037372;28;20281;-80
2022/03/12 11:57:50;;;;;;;0.68;0.68;;;8.40;50.50;;;;;;5039862;28;20021;-79
2022/03/12 12:00:22;;;;;;;0.20;0.20;;;8.50;48.20;;;;;;5032703;28;20092;-77
2022/03/12 12:02:49;;;;;;;2.10;0.75;;;8.50;47.50;;;;;;5043861;28;20029;-79
2022/03/12 12:05:16;;;;;;;0.93;0.35;;;8.40;45.10;;;;;;5030637;28;20033;-83
2022/03/12 12:07:45;;;;;;;2.50;1.02;;;8.30;49.90;;;;;;5029123;28;20033;-83
2022/03/12 12:10:14;;;;;;;0.28;0.28;;;8.10;46.20;;;;;;5037566;28;20208;-83
2022/03/12 12:12:41;;;;;;;0.65;0.52;;;8.00;44.70;;;;;;5037945;28;20021;-81
2022/03/12 12:15:13;;;;;;;0.13;0.10;;;8.10;45.20;;;;;;5053886;28;20016;-81
2022/03/12 12:17:39;;;;;;;0.10;0.10;;;8.10;50.20;;;;;;5050343;28;20029;-82
2022/03/12 12:20:06;;;;;;;1.67;0.45;;;8.10;45.60;;;;;;5041454;28;20300;-78
2022/03/12 12:22:32;;;;;;;0.17;0.10;;;8.20;50.40;;;;;;5049624;28;20343;-75
2022/03/12 12:25:03;;;;;;;0.45;0.35;;;8.10;44.00;;;;;;5043922;28;20021;-82
2022/03/12 12:27:52;;;;;;;1.50;0.63;;;8.10;48.00;;;;;;5061539;28;20092;-83
2022/03/12 12:30:43;;;;;;;2.75;0.35;;;8.00;48.70;;;;;;5043966;28;20083;-82
2022/03/12 12:33:19;;;;;;;0.00;0.00;;;7.90;46.60;;;;;;5063673;28;20029;-83
2022/03/12 12:35:47;;;;;;;1.60;1.17;;;7.80;48.90;;;;;;5066424;28;20035;-83
2022/03/12 12:38:14;;;;;;;;;;;7.80;47.00;;;;;;5065934;28;20087;-83
2022/03/12 12:40:47;;;;;;;0.20;0.20;;;7.80;49.50;;;;;;5048601;28;19900;-83
2022/03/12 12:43:18;;;;;;;0.40;0.20;;;7.70;45.40;;;;;;5065686;28;20032;-82
2022/03/12 12:45:53;;;;;;;0.80;0.60;;;7.60;46.90;;;;;;5048474;28;20021;-82
2022/03/12 12:48:27;;;;;;;1.05;0.45;;;7.40;47.20;;;;;;5049377;28;20048;-80
2022/03/12 12:51:13;;;;;;;0.13;0.00;;;7.20;47.70;;;;;;5056314;28;20208;-82
2022/03/12 12:53:53;;;;;;;0.47;0.35;;;7.00;49.80;;;;;;5051338;28;20063;-81
2022/03/12 12:56:22;;;;;;;0.43;0.22;;;6.90;48.70;;;;;;5052878;28;20326;-80
2022/03/12 12:58:53;;;;;;;1.95;1.17;;;6.90;45.00;;;;;;5071046;28;20016;-81
2022/03/12 13:01:21;;;;;;;1.15;0.60;;;6.90;49.40;;;;;;5076056;28;20039;-83
2022/03/12 13:03:50;;;;;;;1.50;0.40;;;6.90;49.40;;;;;;5073554;28;20082;-84